.
WxDataArchive / Data Records for 2014-07-10
2014-07-09 July 2014 2014-07-11

Data Records for Thursday, 10 July 2014

Time	Temp	Chill	HIndex	Humid	Dewpt	 Wind 	HiWind	WindDir	Rain 	Barom
-----	----	-----	------	-----	-----	------	------	-------	-----	-----
00:00	64.8	64.8	64.8	72	55.6	0	0	---	0.00	30.003 
00:05	64.7	64.7	64.7	72	55.5	0	0	---	0.00	30.003 
00:10	64.5	64.5	64.5	72	55.3	0	0	---	0.00	30.003 
00:15	64.5	64.5	64.5	73	55.6	0	0	---	0.00	30.009 
00:20	64.3	64.3	64.3	73	55.5	0	0	---	0.00	30.009 
00:25	64.2	64.2	64.2	74	55.7	0	0	---	0.00	30.009 
00:30	64.0	64.0	64.0	74	55.5	0	0	---	0.00	30.010 
00:35	63.9	63.9	63.9	75	55.8	0	0	---	0.00	30.010 
00:40	63.7	63.7	63.7	75	55.6	0	0	---	0.00	30.010 
00:45	63.4	63.4	63.4	76	55.7	0	0	---	0.00	30.011 
00:50	63.2	63.2	63.2	76	55.5	0	0	---	0.00	30.011 
00:55	63.2	63.2	63.2	77	55.9	0	0	---	0.00	30.011 
01:00	63.1	63.1	63.1	77	55.8	0	0	---	0.00	30.008 
01:05	63.1	63.1	63.1	77	55.8	0	0	---	0.00	30.008 
01:10	63.1	63.1	63.1	78	56.1	0	0	---	0.00	30.008 
01:15	62.9	62.9	62.9	78	55.9	0	0	---	0.00	30.010 
01:20	62.9	62.9	62.9	78	55.9	0	0	---	0.00	30.010 
01:25	62.9	62.9	62.9	78	55.9	0	0	---	0.00	30.010 
01:30	62.7	62.7	62.7	78	55.7	0	0	---	0.00	30.015 
01:35	62.7	62.7	62.7	78	55.7	0	0	---	0.00	30.015 
01:40	62.6	62.6	62.6	78	55.6	0	0	---	0.00	30.015 
01:45	62.4	62.4	62.4	79	55.8	0	0	---	0.00	30.017 
01:50	62.3	62.3	62.3	79	55.7	0	0	---	0.00	30.017 
01:55	62.1	62.1	62.1	79	55.5	0	0	---	0.00	30.017 
02:00	62.0	62.0	62.0	80	55.8	0	0	---	0.00	30.018 
02:05	61.8	61.8	61.8	80	55.6	0	0	---	0.00	30.018 
02:10	61.8	61.8	61.8	81	55.9	0	0	---	0.00	30.018 
02:15	61.6	61.6	61.6	81	55.7	0	0	---	0.00	30.019 
02:20	61.5	61.5	61.5	81	55.6	0	0	---	0.00	30.019 
02:25	61.2	61.2	61.2	81	55.3	0	0	---	0.00	30.019 
02:30	61.0	61.0	61.0	82	55.5	0	0	---	0.00	30.020 
02:35	60.9	60.9	60.9	82	55.4	0	0	---	0.00	30.020 
02:40	60.7	60.7	60.7	82	55.2	0	0	---	0.00	30.020 
02:45	60.5	60.5	60.5	83	55.3	0	0	---	0.00	30.030 
02:50	60.4	60.4	60.4	83	55.2	0	0	---	0.00	30.030 
02:55	60.2	60.2	60.2	83	55.0	0	0	---	0.00	30.030 
03:00	59.9	59.9	59.9	84	55.0	0	0	---	0.00	30.034 
03:05	59.8	59.8	59.8	84	55.0	0	0	---	0.00	30.034 
03:10	59.5	59.5	59.5	84	54.7	0	0	---	0.00	30.034 
03:15	59.3	59.3	59.3	85	54.8	0	0	---	0.00	30.036 
03:20	59.2	59.2	59.2	85	54.7	0	0	---	0.00	30.036 
03:25	59.0	59.0	59.0	86	54.8	0	0	---	0.00	30.036 
03:30	58.9	58.9	58.9	86	54.7	0	0	---	0.00	30.037 
03:35	58.7	58.7	58.7	86	54.5	0	0	---	0.00	30.037 
03:40	58.4	58.4	58.4	87	54.5	0	0	---	0.00	30.037 
03:45	58.4	58.4	58.4	87	54.5	0	0	---	0.00	30.039 
03:50	58.1	58.1	58.1	87	54.2	0	0	---	0.00	30.039 
03:55	58.0	58.0	58.0	88	54.5	0	0	---	0.00	30.039 
04:00	57.8	57.8	57.8	88	54.3	0	0	---	0.00	30.041 
04:05	57.6	57.6	57.6	88	54.1	0	0	---	0.00	30.041 
04:10	57.5	57.5	57.5	89	54.3	0	0	---	0.00	30.041 
04:15	57.3	57.3	57.3	89	54.1	0	0	---	0.00	30.046 
04:20	57.2	57.2	57.2	89	54.0	0	0	---	0.00	30.046 
04:25	57.2	57.2	57.2	90	54.3	0	0	---	0.00	30.046 
04:30	57.0	57.0	57.0	90	54.1	0	0	---	0.00	30.043 
04:35	56.9	56.9	56.9	90	54.0	0	0	---	0.00	30.043 
04:40	56.7	56.7	56.7	90	53.8	0	0	---	0.00	30.043 
04:45	56.6	56.6	56.6	90	53.7	0	0	---	0.00	30.045 
04:50	56.6	56.6	56.6	90	53.7	0	0	---	0.00	30.045 
04:55	56.5	56.5	56.5	90	53.6	0	0	---	0.00	30.045 
05:00	56.3	56.3	56.3	91	53.7	0	0	---	0.00	30.052 
05:05	56.2	56.2	56.2	91	53.6	0	0	---	0.00	30.052 
05:10	56.0	56.0	56.0	91	53.4	0	0	---	0.00	30.052 
05:15	56.0	56.0	56.0	91	53.4	0	0	---	0.00	30.052 
05:20	55.9	55.9	55.9	91	53.3	0	0	---	0.00	30.052 
05:25	55.9	55.9	55.9	91	53.3	0	0	---	0.00	30.052 
05:30	55.7	55.7	55.7	91	53.1	0	0	---	0.00	30.053 
05:35	55.7	55.7	55.7	92	53.4	0	0	---	0.00	30.053 
05:40	55.7	55.7	55.7	92	53.4	0	0	---	0.00	30.053 
05:45	55.7	55.7	55.7	92	53.4	0	0	---	0.00	30.057 
05:50	55.6	55.6	55.6	92	53.3	0	0	---	0.00	30.057 
05:55	55.6	55.6	55.6	92	53.3	0	0	---	0.00	30.057 
06:00	55.4	55.4	55.4	92	53.1	0	0	---	0.00	30.063 
06:05	55.4	55.4	55.4	92	53.1	0	0	---	0.00	30.063 
06:10	55.4	55.4	55.4	92	53.1	0	0	---	0.00	30.063 
06:15	55.6	55.6	55.6	92	53.3	0	0	---	0.00	30.064 
06:20	55.6	55.6	55.6	92	53.3	0	0	---	0.00	30.064 
06:25	55.6	55.6	55.6	92	53.3	0	0	---	0.00	30.064 
06:30	55.6	55.6	55.6	93	53.6	0	0	---	0.00	30.066 
06:35	55.7	55.7	55.7	93	53.7	0	0	---	0.00	30.066 
06:40	55.9	55.9	55.9	93	53.9	0	0	---	0.00	30.066 
06:45	55.9	55.9	55.9	93	53.9	0	0	---	0.00	30.068 
06:50	56.0	56.0	56.0	93	54.0	0	0	---	0.00	30.068 
06:55	56.2	56.2	56.2	93	54.2	0	0	---	0.00	30.068 
07:00	56.3	56.3	56.3	93	54.3	0	0	---	0.00	30.072 
07:05	56.6	56.6	56.6	93	54.6	0	0	---	0.00	30.072 
07:10	56.7	56.7	56.7	93	54.7	0	0	---	0.00	30.072 
07:15	56.9	56.9	56.9	93	54.9	0	1	292	0.00	30.075 
07:20	57.2	57.2	57.2	93	55.2	0	0	---	0.00	30.075 
07:25	57.3	57.3	57.3	92	55.0	0	1	292	0.00	30.075 
07:30	57.8	57.8	57.8	92	55.5	0	2	292	0.00	30.082 
07:35	58.1	58.1	58.1	91	55.5	0	2	180	0.00	30.082 
07:40	58.4	58.4	58.4	90	55.5	0	2	180	0.00	30.082 
07:45	58.9	58.9	58.9	89	55.7	0	1	180	0.00	30.088 
07:50	59.3	59.3	59.3	88	55.7	0	1	180	0.00	30.088 
07:55	59.6	59.6	59.6	86	55.4	1	3	248	0.00	30.088 
08:00	60.1	60.1	60.1	84	55.2	0	1	248	0.00	30.086 
08:05	60.5	60.5	60.5	83	55.3	0	1	248	0.00	30.086 
08:10	61.2	61.2	61.2	82	55.7	0	1	248	0.00	30.086 
08:15	61.8	61.8	61.8	81	55.9	0	1	248	0.00	30.089 
08:20	62.4	62.4	62.4	78	55.4	0	3	248	0.00	30.089 
08:25	63.2	63.2	63.2	77	55.9	0	1	112	0.00	30.089 
08:30	63.4	63.4	63.4	75	55.3	1	3	112	0.00	30.098 
08:35	63.5	63.5	63.5	75	55.4	1	2	112	0.00	30.098 
08:40	63.9	63.9	63.9	74	55.4	1	2	112	0.00	30.098 
08:45	63.9	63.9	63.9	73	55.1	1	3	112	0.00	30.100 
08:50	64.2	64.2	64.2	73	55.4	0	2	112	0.00	30.100 
08:55	64.5	64.5	64.5	73	55.6	0	2	112	0.00	30.100 
09:00	65.0	65.0	65.0	72	55.7	0	2	112	0.00	30.102 
09:05	65.5	65.5	65.5	70	55.4	0	2	112	0.00	30.102 
09:10	66.0	66.0	66.0	69	55.5	0	2	112	0.00	30.102 
09:15	66.3	66.3	66.3	68	55.4	0	2	112	0.00	30.105 
09:20	66.8	66.8	66.8	68	55.9	0	2	112	0.00	30.105 
09:25	67.1	67.1	67.1	65	54.9	1	3	112	0.00	30.105 
09:30	68.1	68.1	68.1	66	56.3	0	1	112	0.00	30.114 
09:35	68.4	68.4	68.4	63	55.3	0	2	112	0.00	30.114 
09:40	68.8	68.8	68.8	60	54.3	0	2	112	0.00	30.114 
09:45	68.9	68.9	68.9	58	53.5	1	3	112	0.00	30.114 
09:50	68.9	68.9	68.9	59	54.0	0	2	292	0.00	30.114 
09:55	69.3	69.3	69.3	58	53.9	0	2	292	0.00	30.114 
10:00	69.4	69.4	69.4	56	53.0	1	4	292	0.00	30.117 
10:05	69.9	69.9	69.9	54	52.5	1	6	68	0.00	30.117 
10:10	70.4	70.4	70.4	52	51.9	1	6	68	0.00	30.117 
10:15	70.6	70.6	70.6	52	52.1	1	5	135	0.00	30.117 
10:20	70.4	70.4	70.4	55	53.4	1	3	22	0.00	30.117 
10:25	70.9	70.9	70.9	52	52.4	1	4	90	0.00	30.117 
10:30	71.8	71.8	71.8	51	52.7	1	3	90	0.00	30.123 
10:35	72.0	72.0	72.0	48	51.2	2	5	68	0.00	30.123 
10:40	72.1	72.1	72.1	54	54.5	1	4	68	0.00	30.123 
10:45	72.1	72.1	72.1	52	53.5	0	3	68	0.00	30.128 
10:50	72.5	72.5	72.5	53	54.4	1	3	68	0.00	30.128 
10:55	72.8	72.8	72.8	47	51.4	1	4	68	0.00	30.128 
11:00	72.7	72.7	72.7	47	51.3	1	3	45	0.00	30.129 
11:05	72.1	72.1	72.1	50	52.4	1	2	45	0.00	30.129 
11:10	72.1	72.1	72.1	47	50.7	1	3	45	0.00	30.129 
11:15	71.8	71.8	71.8	48	51.0	1	3	45	0.00	30.132 
11:20	71.6	71.6	71.6	50	52.0	0	3	45	0.00	30.132 
11:25	71.8	71.8	71.8	49	51.6	0	3	45	0.00	30.132 
11:30	71.8	71.8	71.8	50	52.1	0	1	45	0.00	30.134 
11:35	72.5	72.5	72.5	48	51.7	1	3	45	0.00	30.134 
11:40	73.2	73.2	73.2	47	51.7	1	5	68	0.00	30.134 
11:45	72.8	72.8	72.8	44	49.6	1	3	0	0.00	30.140 
11:50	73.0	73.0	73.0	50	53.2	0	2	45	0.00	30.140 
11:55	73.0	73.0	73.0	46	51.0	0	3	45	0.00	30.140 
12:00	73.2	73.2	73.2	48	52.3	0	3	112	0.00	30.143 
12:05	73.2	73.2	73.2	45	50.6	2	5	45	0.00	30.143 
12:10	73.0	73.0	73.0	47	51.6	1	3	45	0.00	30.143 
12:15	73.0	73.0	73.0	44	49.8	1	3	45	0.00	30.145 
12:20	73.3	73.3	73.3	47	51.8	1	4	68	0.00	30.145 
12:25	73.9	73.9	73.9	46	51.8	1	3	45	0.00	30.145 
12:30	73.9	73.9	73.9	46	51.8	1	3	315	0.00	30.142 
12:35	74.2	74.2	74.2	45	51.5	1	5	90	0.00	30.142 
12:40	74.7	74.7	74.7	46	52.5	0	2	68	0.00	30.142 
12:45	75.1	75.1	77.6	44	51.7	0	2	315	0.00	30.144 
12:50	74.4	74.4	74.4	41	49.1	2	3	292	0.00	30.144 
12:55	74.2	74.2	74.2	42	49.6	1	4	315	0.00	30.144 
13:00	74.0	74.0	74.0	41	48.8	1	4	292	0.00	30.147 
13:05	74.4	74.4	74.4	43	50.4	1	3	292	0.00	30.147 
13:10	74.7	74.7	74.7	43	50.7	0	2	292	0.00	30.147 
13:15	74.7	74.7	74.7	43	50.7	1	2	292	0.00	30.145 
13:20	74.9	74.9	74.9	43	50.9	0	2	292	0.00	30.145 
13:25	74.9	74.9	74.9	42	50.2	0	2	292	0.00	30.145 
13:30	75.1	75.1	77.6	41	49.8	0	2	292	0.00	30.146 
13:35	75.1	75.1	77.6	42	50.4	1	4	292	0.00	30.146 
13:40	75.4	75.4	77.7	45	52.6	0	2	0	0.00	30.146 
13:45	75.6	75.6	77.8	43	51.5	1	4	112	0.00	30.144 
13:50	75.4	75.4	77.6	40	49.4	1	2	112	0.00	30.144 
13:55	75.4	75.4	77.7	42	50.7	1	4	0	0.00	30.144 
14:00	75.8	75.8	77.8	42	51.1	0	2	0	0.00	30.145 
14:05	74.9	74.9	74.9	41	49.6	2	5	338	0.00	30.145 
14:10	74.0	74.0	74.0	42	49.4	1	3	315	0.00	30.145 
14:15	74.4	74.4	74.4	43	50.4	1	3	315	0.00	30.145 
14:20	75.1	75.1	77.6	43	51.1	1	4	315	0.00	30.145 
14:25	75.1	75.1	77.6	41	49.8	1	3	0	0.00	30.145 
14:30	75.1	75.1	77.6	41	49.8	2	4	270	0.00	30.141 
14:35	75.3	75.3	77.5	39	48.6	2	4	338	0.00	30.141 
14:40	75.4	75.4	77.6	39	48.7	0	3	338	0.00	30.141 
14:45	74.9	74.9	74.9	41	49.6	1	3	338	0.00	30.137 
14:50	74.4	74.4	74.4	45	51.7	1	4	338	0.00	30.137 
14:55	74.4	74.4	74.4	42	49.8	0	3	0	0.00	30.137 
15:00	74.4	74.4	74.4	43	50.4	1	3	315	0.00	30.134 
15:05	75.1	75.1	77.6	42	50.4	1	4	22	0.00	30.134 
15:10	75.4	75.4	77.6	41	50.0	2	6	270	0.00	30.134 
15:15	75.3	75.3	77.6	41	50.0	1	4	292	0.00	30.128 
15:20	75.3	75.3	77.6	41	50.0	2	4	292	0.00	30.128 
15:25	75.6	75.6	77.8	43	51.5	1	3	292	0.00	30.128 
15:30	76.0	76.0	77.9	43	51.9	1	4	112	0.00	30.127 
15:35	76.1	76.1	77.8	39	49.3	1	5	338	0.00	30.127 
15:40	76.3	76.3	78.0	41	50.8	1	3	22	0.00	30.127 
15:45	76.1	76.1	77.9	40	50.0	1	5	22	0.00	30.131 
15:50	76.5	76.5	78.1	43	52.3	1	5	112	0.00	30.131 
15:55	76.5	76.5	78.0	39	49.7	1	5	68	0.00	30.131 
16:00	76.7	76.7	78.0	38	49.2	1	4	292	0.00	30.125 
16:05	77.0	77.0	78.3	42	52.1	0	4	292	0.00	30.125 
16:10	77.4	77.4	78.4	39	50.5	1	3	292	0.00	30.125 
16:15	77.6	77.6	78.7	43	53.3	0	2	292	0.00	30.120 
16:20	77.4	77.4	78.4	39	50.5	1	4	292	0.00	30.120 
16:25	77.4	77.4	78.4	39	50.5	1	4	292	0.00	30.120 
16:30	77.2	77.2	78.3	40	51.0	1	4	68	0.00	30.120 
16:35	77.0	77.0	78.1	38	49.4	0	3	338	0.00	30.120 
16:40	77.4	77.4	78.5	41	51.8	1	2	338	0.00	30.120 
16:45	77.0	77.0	78.1	38	49.4	1	4	338	0.00	30.117 
16:50	77.0	77.0	78.1	38	49.4	1	3	270	0.00	30.117 
16:55	77.6	77.6	78.5	39	50.7	0	2	270	0.00	30.117 
17:00	77.6	77.6	78.4	38	50.0	1	4	270	0.00	30.111 
17:05	77.2	77.2	78.3	39	50.3	1	4	270	0.00	30.111 
17:10	77.0	77.0	78.3	41	51.5	1	3	292	0.00	30.111 
17:15	76.8	76.8	78.1	39	49.9	0	3	292	0.00	30.111 
17:20	77.0	77.0	78.2	39	50.1	1	3	338	0.00	30.111 
17:25	77.0	77.0	78.2	39	50.1	1	3	338	0.00	30.111 
17:30	77.2	77.2	78.4	41	51.7	1	3	338	0.00	30.108 
17:35	77.4	77.4	78.5	41	51.8	0	1	315	0.00	30.108 
17:40	77.4	77.4	78.4	40	51.2	1	4	135	0.00	30.108 
17:45	77.2	77.2	78.5	43	52.9	1	5	112	0.00	30.105 
17:50	77.0	77.0	78.2	40	50.8	0	3	22	0.00	30.105 
17:55	77.0	77.0	78.2	39	50.1	1	2	22	0.00	30.105 
18:00	76.8	76.8	78.1	39	49.9	1	2	45	0.00	30.104 
18:05	76.3	76.3	77.9	40	50.2	1	4	292	0.00	30.104 
18:10	76.0	76.0	77.8	40	49.9	1	4	315	0.00	30.104 
18:15	75.8	75.8	77.8	42	51.1	1	3	315	0.00	30.101 
18:20	75.8	75.8	77.8	42	51.1	0	1	315	0.00	30.101 
18:25	75.8	75.8	77.8	43	51.7	0	1	315	0.00	30.101 
18:30	75.8	75.8	77.8	42	51.1	0	4	315	0.00	30.095 
18:35	75.6	75.6	77.7	42	50.9	1	2	315	0.00	30.095 
18:40	75.4	75.4	77.7	43	51.3	1	3	315	0.00	30.095 
18:45	75.4	75.4	77.7	42	50.7	0	2	315	0.00	30.105 
18:50	75.3	75.3	77.6	42	50.6	0	1	315	0.00	30.105 
18:55	75.1	75.1	77.6	43	51.1	0	2	315	0.00	30.105 
19:00	75.1	75.1	77.5	39	48.4	0	2	315	0.00	30.104 
19:05	75.1	75.1	77.6	43	51.1	0	2	315	0.00	30.104 
19:10	75.1	75.1	77.6	41	49.8	1	3	315	0.00	30.104 
19:15	75.1	75.1	77.6	43	51.1	0	2	315	0.00	30.102 
19:20	74.7	74.7	74.7	44	51.3	0	1	315	0.00	30.102 
19:25	74.4	74.4	74.4	44	51.0	0	1	315	0.00	30.102 
19:30	74.2	74.2	74.2	45	51.5	0	0	---	0.00	30.105 
19:35	74.2	74.2	74.2	43	50.2	0	1	315	0.00	30.105 
19:40	74.2	74.2	74.2	46	52.1	0	1	315	0.00	30.105 
19:45	74.4	74.4	74.4	43	50.4	0	2	315	0.00	30.105 
19:50	74.6	74.6	74.6	42	50.0	0	1	315	0.00	30.105 
19:55	74.6	74.6	74.6	45	51.8	0	2	315	0.00	30.105 
20:00	74.6	74.6	74.6	44	51.2	0	1	315	0.00	30.110 
20:05	74.4	74.4	74.4	44	51.0	0	2	315	0.00	30.110 
20:10	74.0	74.0	74.0	45	51.3	0	1	315	0.00	30.110 
20:15	74.0	74.0	74.0	46	51.9	0	1	315	0.00	30.106 
20:20	73.9	73.9	73.9	46	51.8	0	0	---	0.00	30.106 
20:25	73.7	73.7	73.7	47	52.2	0	0	---	0.00	30.106 
20:30	73.5	73.5	73.5	47	52.0	0	0	---	0.00	30.107 
20:35	73.3	73.3	73.3	47	51.8	0	0	---	0.00	30.107 
20:40	73.2	73.2	73.2	47	51.7	0	0	---	0.00	30.107 
20:45	73.0	73.0	73.0	49	52.7	0	0	---	0.00	30.112 
20:50	72.7	72.7	72.7	49	52.4	0	0	---	0.00	30.112 
20:55	72.3	72.3	72.3	50	52.6	0	0	---	0.00	30.112 
21:00	72.0	72.0	72.0	50	52.3	0	0	---	0.00	30.115 
21:05	71.6	71.6	71.6	51	52.5	0	0	---	0.00	30.115 
21:10	71.3	71.3	71.3	52	52.8	0	0	---	0.00	30.115 
21:15	70.8	70.8	70.8	53	52.8	0	0	---	0.00	30.111 
21:20	70.4	70.4	70.4	54	52.9	0	0	---	0.00	30.111 
21:25	69.9	69.9	69.9	55	53.0	0	0	---	0.00	30.111 
21:30	69.6	69.6	69.6	56	53.2	0	0	---	0.00	30.113 
21:35	69.3	69.3	69.3	57	53.4	0	0	---	0.00	30.113 
21:40	68.9	68.9	68.9	58	53.5	0	0	---	0.00	30.113 
21:45	68.4	68.4	68.4	60	54.0	0	0	---	0.00	30.118 
21:50	67.9	67.9	67.9	61	53.9	0	0	---	0.00	30.118 
21:55	67.6	67.6	67.6	62	54.1	0	0	---	0.00	30.118 
22:00	67.3	67.3	67.3	63	54.3	0	0	---	0.00	30.125 
22:05	67.1	67.1	67.1	63	54.1	0	0	---	0.00	30.125 
22:10	66.8	66.8	66.8	64	54.2	0	0	---	0.00	30.125 
22:15	66.4	66.4	66.4	65	54.3	0	0	---	0.00	30.120 
22:20	66.1	66.1	66.1	65	54.0	0	0	---	0.00	30.120 
22:25	65.6	65.6	65.6	66	53.9	0	0	---	0.00	30.120 
22:30	65.5	65.5	65.5	67	54.2	0	0	---	0.00	30.128 
22:35	65.2	65.2	65.2	69	54.8	0	0	---	0.00	30.128 
22:40	64.8	64.8	64.8	70	54.8	0	0	---	0.00	30.128 
22:45	64.7	64.7	64.7	70	54.7	0	0	---	0.00	30.130 
22:50	64.5	64.5	64.5	71	54.9	0	0	---	0.00	30.130 
22:55	64.2	64.2	64.2	72	55.0	0	0	---	0.00	30.130 
23:00	64.0	64.0	64.0	73	55.2	0	0	---	0.00	30.132 
23:05	63.7	63.7	63.7	73	54.9	0	0	---	0.00	30.132 
23:10	63.5	63.5	63.5	74	55.1	0	0	---	0.00	30.132 
23:15	63.4	63.4	63.4	75	55.3	0	0	---	0.00	30.135 
23:20	63.2	63.2	63.2	75	55.1	0	0	---	0.00	30.135 
23:25	63.1	63.1	63.1	76	55.4	0	0	---	0.00	30.135 
23:30	62.9	62.9	62.9	77	55.6	0	0	---	0.00	30.138 
23:35	62.9	62.9	62.9	77	55.6	0	0	---	0.00	30.138 
23:40	62.7	62.7	62.7	77	55.4	0	0	---	0.00	30.138 
23:45	62.6	62.6	62.6	77	55.3	0	0	---	0.00	30.146 
23:50	62.4	62.4	62.4	78	55.4	0	0	---	0.00	30.146 
23:55	62.3	62.3	62.3	78	55.3	0	0	---	0.00	30.146 

CoCoRaHS
IN-AL-39
A2 Web Hosting
Creative Commons License
GoDaddy
search engine by freefind advanced

loaded 2018-11-17 23:37:24 • last modified 2010-11-18 10:43:29
Privacy PolicyDisclaimer
• wx.awcolley.com is powered by PmWiki v.2002016 •
• all content (unless otherwise noted) © 2018 A W Colley